Time;durP1;ratioP1;P1;durP2;ratioP2;P2;SDS_P1;SDS_P2;PMS_P1;PMS_P2;Temp;Humidity;BMP_temperature;BMP_pressure;BME280_temperature;BME280_humidity;BME280_pressure;Samples;Min_cycle;Max_cycle;Signal;HPM_P1;HPM_P2
2022/09/28 00:01:44;;;;;;;3.45;2.08;;;;;;;12.65;95.65;98898.84;5029152;28;20382;-68
2022/09/28 00:04:11;;;;;;;3.00;1.90;;;;;;;12.51;95.68;98896.38;5028650;28;20076;-67
2022/09/28 00:06:37;;;;;;;2.70;1.63;;;;;;;12.55;95.46;98894.38;5035565;28;20041;-67
2022/09/28 00:09:03;;;;;;;4.72;2.47;;;;;;;12.53;95.88;98888.63;5030504;28;20029;-67
2022/09/28 00:11:29;;;;;;;3.53;2.22;;;;;;;12.51;95.97;98893.66;5029006;28;20048;-67
2022/09/28 00:14:00;;;;;;;3.58;1.70;;;;;;;12.58;96.08;98898.94;5033960;28;20037;-67
2022/09/28 00:16:29;;;;;;;4.05;2.05;;;;;;;12.59;95.87;98889.69;5034007;28;20077;-66
2022/09/28 00:18:55;;;;;;;3.72;2.40;;;;;;;12.45;95.65;98889.91;5015615;28;20037;-68
2022/09/28 00:21:26;;;;;;;3.00;1.90;;;;;;;12.48;96.03;98885.63;5008377;28;20029;-67
2022/09/28 00:24:11;;;;;;;3.97;1.90;;;;;;;12.52;95.46;98891.75;5044239;28;20047;-67
2022/09/28 00:26:39;;;;;;;3.00;1.90;;;;;;;12.44;95.51;98883.00;5030745;28;20991;-66
2022/09/28 00:29:07;;;;;;;6.25;1.90;;;;;;;12.41;95.85;98883.78;5030178;28;20028;-67
2022/09/28 00:31:33;;;;;;;2.67;1.73;;;;;;;12.39;95.70;98886.13;5032773;28;20108;-66
2022/09/28 00:34:00;;;;;;;3.75;1.83;;;;;;;12.31;96.40;98890.13;5016741;28;20030;-67
2022/09/28 00:36:28;;;;;;;3.70;1.80;;;;;;;12.41;96.04;98883.78;5015157;28;20083;-66
2022/09/28 00:38:55;;;;;;;2.58;1.77;;;;;;;12.44;95.32;98874.88;5039128;28;20034;-68
2022/09/28 00:41:23;;;;;;;2.92;1.77;;;;;;;12.28;95.41;98873.97;4999148;28;20409;-67
2022/09/28 00:43:49;;;;;;;3.22;1.70;;;;;;;12.31;95.88;98873.19;5031425;28;20812;-66
2022/09/28 00:46:32;;;;;;;1.77;1.25;;;;;;;12.30;95.88;98867.00;5028058;28;20030;-67
2022/09/28 00:49:03;;;;;;;2.47;1.55;;;;;;;12.20;96.04;98869.88;5015246;28;20445;-67
2022/09/28 00:51:30;;;;;;;2.63;1.70;;;;;;;12.25;95.99;98872.13;5025069;28;20088;-67
2022/09/28 00:53:59;;;;;;;2.58;1.80;;;;;;;12.23;96.41;98869.81;5031792;28;20692;-66
2022/09/28 00:56:28;;;;;;;3.33;1.55;;;;;;;12.26;95.88;98870.94;4996918;28;20470;-69
2022/09/28 00:58:56;;;;;;;1.52;1.08;;;;;;;12.26;96.35;98860.91;5015158;28;20045;-66
2022/09/28 01:01:21;;;;;;;1.70;1.35;;;;;;;12.22;96.15;98859.41;5034547;28;20049;-66
2022/09/28 01:03:47;;;;;;;1.50;1.15;;;;;;;12.30;95.83;98858.16;5013854;28;20033;-67
2022/09/28 01:06:19;;;;;;;1.48;1.33;;;;;;;12.35;95.92;98855.00;5034959;28;20112;-67
2022/09/28 01:08:47;;;;;;;3.28;2.00;;;;;;;12.35;95.81;98857.69;5033319;28;20052;-67
2022/09/28 01:11:12;;;;;;;4.97;2.20;;;;;;;12.36;96.00;98851.09;5022028;28;20033;-67
2022/09/28 01:13:40;;;;;;;2.60;1.73;;;;;;;12.35;96.05;98855.00;5013110;28;20044;-69
2022/09/28 01:16:23;;;;;;;2.95;1.90;;;;;;;12.18;96.01;98856.78;5026252;28;20040;-67
2022/09/28 01:19:02;;;;;;;2.63;1.80;;;;;;;12.22;96.04;98846.69;5027197;28;20371;-67
2022/09/28 01:21:38;;;;;;;3.05;1.73;;;;;;;12.32;95.30;98851.16;5025029;28;20075;-66
2022/09/28 01:24:15;;;;;;;5.78;1.80;;;;;;;12.34;95.03;98865.03;5011126;28;20040;-67
2022/09/28 01:26:58;;;;;;;4.97;2.03;;;;;;;12.25;95.46;98855.94;4999453;28;20025;-66
2022/09/28 01:29:40;;;;;;;2.63;1.70;;;;;;;12.26;95.97;98854.72;5015389;28;20033;-67
2022/09/28 01:32:12;;;;;;;2.72;1.58;;;;;;;12.19;95.77;98847.53;5028157;28;20315;-67
2022/09/28 01:34:47;;;;;;;4.22;2.40;;;;;;;12.19;95.92;98850.22;5019909;28;20043;-67
2022/09/28 01:37:15;;;;;;;4.10;2.35;;;;;;;12.17;95.84;98851.81;5009019;28;20116;-67
2022/09/28 01:39:45;;;;;;;3.00;1.92;;;;;;;12.14;96.30;98852.59;5010094;28;20036;-67
2022/09/28 01:42:19;;;;;;;3.15;1.48;;;;;;;12.19;95.72;98852.94;5012656;28;20057;-67
2022/09/28 01:44:47;;;;;;;6.03;2.78;;;;;;;12.04;95.82;98842.75;4992603;28;20052;-67
2022/09/28 01:47:15;;;;;;;3.17;1.83;;;;;;;12.09;95.80;98837.66;4997285;28;20037;-67
2022/09/28 01:49:48;;;;;;;2.75;2.00;;;;;;;12.03;96.10;98843.91;5009548;28;20035;-66
2022/09/28 01:52:33;;;;;;;2.83;1.55;;;;;;;12.09;95.73;98843.06;4995212;28;20539;-66
2022/09/28 01:55:07;;;;;;;3.38;2.00;;;;;;;12.11;95.67;98832.63;5019120;28;20059;-67
2022/09/28 01:57:39;;;;;;;3.83;2.08;;;;;;;12.08;95.53;98833.44;5007750;28;20029;-67
2022/09/28 02:00:09;;;;;;;4.15;2.45;;;;;;;12.03;94.97;98833.91;5008259;28;20098;-66
2022/09/28 02:02:49;;;;;;;3.65;2.17;;;;;;;11.84;95.73;98834.56;5022159;28;20052;-67
2022/09/28 02:05:32;;;;;;;3.50;1.67;;;;;;;11.73;95.39;98829.31;5013092;28;20573;-68
2022/09/28 02:08:07;;;;;;;3.90;2.40;;;;;;;11.58;96.01;98829.91;5013326;28;20029;-67
2022/09/28 02:10:44;;;;;;;2.47;1.80;;;;;;;11.60;96.18;98831.03;5025425;28;20385;-66
2022/09/28 02:13:17;;;;;;;3.00;1.88;;;;;;;11.72;95.99;98833.19;5013575;28;20034;-69
2022/09/28 02:16:15;;;;;;;3.25;2.33;;;;;;;11.50;96.43;98829.22;5023766;28;20076;-68
2022/09/28 02:18:42;;;;;;;2.58;1.75;;;;;;;11.60;96.94;98824.84;5009384;28;20083;-67
2022/09/28 02:21:17;;;;;;;3.38;2.28;;;;;;;11.49;96.70;98825.03;5028110;28;20034;-67
2022/09/28 02:23:51;;;;;;;4.50;2.55;;;;;;;11.54;96.87;98829.19;5030868;28;20044;-66
2022/09/28 02:26:21;;;;;;;3.42;2.58;;;;;;;11.52;96.80;98823.44;5008221;28;20029;-68
2022/09/28 02:28:47;;;;;;;3.85;2.55;;;;;;;11.46;96.29;98825.81;4997923;28;20025;-67
2022/09/28 02:31:12;;;;;;;4.43;2.58;;;;;;;11.47;97.21;98834.66;5013395;28;20494;-67
2022/09/28 02:33:42;;;;;;;3.83;2.42;;;;;;;11.37;97.29;98828.25;5010098;28;20033;-68
2022/09/28 02:36:08;;;;;;;6.32;2.03;;;;;;;11.35;97.11;98825.19;5038547;28;20033;-68
2022/09/28 02:38:37;;;;;;;5.85;2.30;;;;;;;11.35;96.63;98821.72;5030760;28;20125;-68
2022/09/28 02:41:11;;;;;;;2.95;2.30;;;;;;;11.37;96.60;98827.47;4992786;28;20116;-68
2022/09/28 02:44:06;;;;;;;6.15;2.22;;;;;;;11.40;95.94;98816.66;5004856;28;20037;-68
2022/09/28 02:47:21;;;;;;;6.97;2.70;;;;;;;11.17;96.82;98818.50;4987416;28;20038;-68
2022/09/28 02:50:01;;;;;;;3.67;2.10;;;;;;;11.16;96.91;98816.97;4989684;28;20025;-68
2022/09/28 02:53:05;;;;;;;4.45;2.38;;;;;;;11.13;96.31;98813.16;5001142;28;20033;-67
2022/09/28 02:56:03;;;;;;;4.30;1.95;;;;;;;11.01;95.91;98824.47;4990360;28;20041;-68
2022/09/28 02:58:29;;;;;;;3.67;1.98;;;;;;;10.97;96.63;98817.59;4994522;28;20581;-68
2022/09/28 03:01:06;;;;;;;2.30;1.42;;;;;;;10.99;96.40;98817.94;4992157;28;20045;-68
2022/09/28 03:03:56;;;;;;;3.25;2.08;;;;;;;11.13;96.65;98821.22;4988981;28;20386;-68
2022/09/28 03:06:36;;;;;;;3.85;1.90;;;;;;;11.19;96.13;98819.63;5002970;28;20645;-67
2022/09/28 03:09:24;;;;;;;3.55;1.77;;;;;;;11.13;95.43;98815.84;4992422;28;20499;-67
2022/09/28 03:11:54;;;;;;;4.28;2.42;;;;;;;11.11;95.50;98812.78;5003114;28;21025;-67
2022/09/28 03:14:20;;;;;;;2.95;1.83;;;;;;;10.94;95.54;98804.94;5005233;28;20046;-68
2022/09/28 03:16:52;;;;;;;2.47;1.80;;;;;;;10.92;95.42;98813.41;4991055;28;20036;-68
2022/09/28 03:19:23;;;;;;;2.95;1.95;;;;;;;10.93;95.70;98811.47;4991307;28;20033;-67
2022/09/28 03:21:50;;;;;;;3.40;1.80;;;;;;;10.95;94.56;98807.22;5009907;28;20021;-67
2022/09/28 03:24:15;;;;;;;3.58;2.00;;;;;;;10.82;94.60;98806.97;5018429;28;20042;-68
2022/09/28 03:26:40;;;;;;;2.95;1.65;;;;;;;10.76;95.00;98808.56;5012763;28;20111;-67
2022/09/28 03:29:06;;;;;;;2.95;1.75;;;;;;;10.73;94.65;98804.00;5021168;28;20039;-68
2022/09/28 03:31:33;;;;;;;3.15;1.95;;;;;;;10.64;94.71;98803.72;5016518;28;20026;-68
2022/09/28 03:33:59;;;;;;;3.80;2.13;;;;;;;10.70;95.38;98801.34;4997330;28;20501;-69
2022/09/28 03:36:25;;;;;;;3.22;1.73;;;;;;;10.67;94.64;98805.59;5012272;28;20041;-68
2022/09/28 03:38:53;;;;;;;2.53;1.60;;;;;;;10.59;95.63;98793.38;5021837;28;20076;-68
2022/09/28 03:41:19;;;;;;;5.78;2.50;;;;;;;10.57;95.42;98797.63;5026840;28;20121;-67
2022/09/28 03:43:44;;;;;;;3.88;2.10;;;;;;;10.59;96.43;98796.06;5003661;28;20461;-67
2022/09/28 03:46:12;;;;;;;4.78;2.35;;;;;;;10.61;96.68;98798.34;5010398;28;20087;-68
2022/09/28 03:48:43;;;;;;;2.85;2.42;;;;;;;10.73;96.42;98795.16;4999767;28;20048;-68
2022/09/28 03:51:11;;;;;;;9.80;2.72;;;;;;;10.66;96.75;98792.53;5001364;28;20100;-67
2022/09/28 03:53:38;;;;;;;3.95;2.33;;;;;;;10.73;96.79;98793.22;5011662;28;20067;-67
2022/09/28 03:56:07;;;;;;;3.50;2.45;;;;;;;10.82;96.93;98793.50;5026667;28;20039;-67
2022/09/28 03:58:33;;;;;;;4.05;2.70;;;;;;;10.92;96.44;98791.09;5023794;28;20076;-68
2022/09/28 04:01:07;;;;;;;5.18;2.28;;;;;;;10.98;96.76;98794.84;4996517;28;20087;-68
2022/09/28 04:03:33;;;;;;;6.05;2.65;;;;;;;11.02;95.96;98795.59;4991838;28;20030;-67
2022/09/28 04:05:59;;;;;;;6.10;3.22;;;;;;;10.90;96.71;98794.94;5027280;28;20524;-68
2022/09/28 04:08:25;;;;;;;4.07;2.45;;;;;;;10.99;96.70;98796.41;4995203;28;20387;-68
2022/09/28 04:10:50;;;;;;;5.53;2.85;;;;;;;10.92;96.35;98802.63;5007808;28;20033;-68
2022/09/28 04:13:16;;;;;;;4.70;2.53;;;;;;;10.87;96.47;98795.78;5007430;28;20033;-68
2022/09/28 04:15:42;;;;;;;5.82;2.95;;;;;;;10.42;98.63;98791.63;5000220;28;20030;-68
2022/09/28 04:18:09;;;;;;;4.90;2.33;;;;;;;10.40;99.21;98788.56;5024089;28;20059;-68
2022/09/28 04:21:07;;;;;;;4.43;2.33;;;;;;;10.35;99.43;98797.06;5014702;28;20537;-68
2022/09/28 04:23:38;;;;;;;4.03;2.58;;;;;;;10.53;99.43;98800.34;5004682;28;20551;-68
2022/09/28 04:26:06;;;;;;;5.55;2.55;;;;;;;10.49;99.07;98802.31;5012193;28;20346;-68
2022/09/28 04:31:18;;;;;;;4.72;2.45;;;;;;;10.39;98.72;98802.44;5013322;28;20033;-68
2022/09/28 04:33:44;;;;;;;4.95;2.72;;;;;;;10.20;100.00;98802.97;5008982;28;20418;-68
2022/09/28 04:36:10;;;;;;;6.75;2.28;;;;;;;10.21;100.00;98797.19;4987365;28;20037;-68
2022/09/28 04:38:36;;;;;;;3.95;2.42;;;;;;;9.99;100.00;98801.19;5028133;28;20486;-68
2022/09/28 04:41:02;;;;;;;5.00;2.75;;;;;;;10.10;100.00;98799.22;5011736;28;20029;-68
2022/09/28 04:43:28;;;;;;;5.03;2.17;;;;;;;10.08;100.00;98798.81;5007775;28;20414;-68
2022/09/28 04:46:00;;;;;;;4.45;2.67;;;;;;;10.11;100.00;98797.28;5020053;28;20030;-68
2022/09/28 04:48:31;;;;;;;5.07;2.78;;;;;;;10.31;100.00;98799.03;5018424;28;20025;-68
2022/09/28 04:51:07;;;;;;;3.42;2.30;;;;;;;10.30;100.00;98794.81;5046791;23;20581;-66
2022/09/28 04:53:34;;;;;;;3.10;2.17;;;;;;;10.09;100.00;98805.72;5023955;28;20045;-67
2022/09/28 04:56:02;;;;;;;5.70;2.90;;;;;;;10.18;100.00;98797.25;5025997;28;20025;-67
2022/09/28 04:58:29;;;;;;;5.40;2.80;;;;;;;10.23;100.00;98802.94;5026860;28;20030;-67
2022/09/28 05:01:00;;;;;;;4.18;2.80;;;;;;;10.21;100.00;98801.81;4996379;28;20029;-66
2022/09/28 05:03:45;;;;;;;4.38;2.97;;;;;;;10.27;100.00;98802.91;5019593;28;20490;-67
2022/09/28 05:06:34;;;;;;;5.45;3.20;;;;;;;10.39;100.00;98813.19;5006135;28;20050;-67
2022/09/28 05:09:08;;;;;;;6.13;2.97;;;;;;;10.36;100.00;98803.97;5031862;28;20110;-66
2022/09/28 05:11:34;;;;;;;4.32;2.42;;;;;;;10.44;99.85;98810.06;5022365;28;20034;-67
2022/09/28 05:14:00;;;;;;;4.82;2.80;;;;;;;10.43;100.00;98800.47;5006513;28;20045;-67
2022/09/28 05:16:28;;;;;;;7.53;2.92;;;;;;;10.48;100.00;98805.41;5023287;28;20045;-67
2022/09/28 05:19:13;;;;;;;6.82;3.30;;;;;;;10.53;99.78;98802.28;5007601;28;20048;-70
2022/09/28 05:21:44;;;;;;;6.25;3.05;;;;;;;10.59;99.39;98812.22;5024646;28;20029;-66
2022/09/28 05:24:10;;;;;;;7.45;4.00;;;;;;;10.58;99.34;98805.31;5035758;28;20045;-66
2022/09/28 05:26:37;;;;;;;10.13;2.40;;;;;;;10.39;99.57;98808.56;5008668;28;20021;-67
2022/09/28 05:29:03;;;;;;;5.60;2.95;;;;;;;10.24;98.40;98812.53;5017923;28;20575;-66
2022/09/28 05:31:47;;;;;;;6.18;3.00;;;;;;;10.15;99.80;98812.22;4993972;28;20320;-67
2022/09/28 05:34:17;;;;;;;5.93;2.83;;;;;;;10.05;99.69;98807.66;5001766;28;20593;-67
2022/09/28 05:36:44;;;;;;;6.43;2.88;;;;;;;10.17;100.00;98814.53;5027280;28;20563;-67
2022/09/28 05:39:10;;;;;;;5.53;3.08;;;;;;;10.27;100.00;98806.38;5026846;28;20517;-66
2022/09/28 05:41:36;;;;;;;6.85;3.25;;;;;;;10.47;100.00;98806.59;5001180;28;20042;-67
2022/09/28 05:44:01;;;;;;;6.25;3.17;;;;;;;10.55;100.00;98808.03;5009572;28;20038;-67
2022/09/28 05:46:28;;;;;;;10.50;4.32;;;;;;;10.36;100.00;98797.81;5005196;28;20034;-66
2022/09/28 05:48:58;;;;;;;8.07;3.38;;;;;;;10.23;100.00;98805.63;5023565;28;20112;-67
2022/09/28 05:51:24;;;;;;;9.50;3.90;;;;;;;10.40;100.00;98799.31;5006417;28;20030;-66
2022/09/28 05:53:52;;;;;;;6.30;3.55;;;;;;;10.49;100.00;98796.94;5009062;28;20062;-66
2022/09/28 05:56:18;;;;;;;6.43;3.42;;;;;;;10.64;99.72;98801.03;5010348;28;20026;-67
2022/09/28 05:58:44;;;;;;;13.20;5.28;;;;;;;10.56;100.00;98801.47;4991458;28;20132;-67
2022/09/28 06:01:10;;;;;;;12.05;4.07;;;;;;;10.61;99.64;98804.50;4999447;28;20503;-66
2022/09/28 06:03:36;;;;;;;7.32;3.75;;;;;;;10.63;100.00;98801.41;5017623;28;20040;-67
2022/09/28 06:06:03;;;;;;;4.47;3.03;;;;;;;10.62;99.90;98800.66;4996541;28;20064;-66
2022/09/28 06:08:31;;;;;;;7.78;3.42;;;;;;;10.52;99.19;98798.06;5023313;28;20025;-66
2022/09/28 06:11:11;;;;;;;6.88;3.42;;;;;;;10.33;100.00;98804.00;5020862;28;20034;-66
2022/09/28 06:13:38;;;;;;;7.32;3.50;;;;;;;10.43;100.00;98806.59;5007600;28;20040;-67
2022/09/28 06:16:06;;;;;;;8.40;4.32;;;;;;;10.55;100.00;98798.03;5020585;28;20559;-66
2022/09/28 06:18:32;;;;;;;9.38;4.25;;;;;;;10.68;100.00;98803.69;5002992;28;20046;-67
2022/09/28 06:21:13;;;;;;;7.03;3.97;;;;;;;10.59;100.00;98806.06;5022406;28;20049;-67
2022/09/28 06:23:44;;;;;;;7.55;3.60;;;;;;;10.65;100.00;98815.22;4992752;28;20045;-67
2022/09/28 06:26:09;;;;;;;10.02;4.22;;;;;;;10.59;100.00;98820.28;5003940;28;20038;-67
2022/09/28 06:28:36;;;;;;;9.65;3.95;;;;;;;10.64;100.00;98822.56;5008677;28;20034;-67
2022/09/28 06:31:01;;;;;;;11.82;4.38;;;;;;;10.62;100.00;98811.44;5006142;28;20120;-67
2022/09/28 06:33:29;;;;;;;11.38;4.32;;;;;;;10.63;100.00;98823.72;5027835;28;20072;-68
2022/09/28 06:35:54;;;;;;;15.02;5.05;;;;;;;10.69;100.00;98832.88;5006052;28;20022;-67
2022/09/28 06:38:20;;;;;;;11.90;4.28;;;;;;;10.72;100.00;98826.69;5004419;28;20129;-67
2022/09/28 06:40:48;;;;;;;7.70;3.90;;;;;;;10.86;100.00;98834.63;5005315;28;20113;-67
2022/09/28 06:43:14;;;;;;;7.47;3.72;;;;;;;10.91;100.00;98825.34;5012778;28;20125;-67
2022/09/28 06:45:58;;;;;;;9.77;5.13;;;;;;;10.87;99.63;98838.09;5003764;28;20036;-67
2022/09/28 06:48:50;;;;;;;10.45;4.93;;;;;;;10.84;99.83;98831.56;4997250;28;20458;-67
2022/09/28 06:51:51;;;;;;;7.85;3.88;;;;;;;10.97;99.82;98831.81;4972454;28;20112;-66
2022/09/28 06:54:36;;;;;;;11.32;4.57;;;;;;;11.02;99.74;98833.28;4997425;28;20053;-67
2022/09/28 06:57:20;;;;;;;11.05;3.85;;;;;;;11.01;99.46;98835.25;5019886;28;20038;-67
2022/09/28 06:59:46;;;;;;;15.10;5.43;;;;;;;10.96;99.33;98830.28;5007542;28;20041;-68
2022/09/28 07:02:13;;;;;;;9.20;4.60;;;;;;;10.96;99.82;98832.19;5025705;28;20038;-67
2022/09/28 07:04:57;;;;;;;8.38;4.43;;;;;;;11.00;99.88;98838.31;5009710;28;20045;-67
2022/09/28 07:07:43;;;;;;;10.20;4.63;;;;;;;10.95;99.21;98839.53;5005959;28;20115;-66
2022/09/28 07:10:18;;;;;;;7.97;3.67;;;;;;;11.03;99.76;98840.22;5002067;28;20091;-68
2022/09/28 07:13:03;;;;;;;9.75;4.32;;;;;;;11.17;99.66;98829.28;5025202;28;20572;-67
2022/09/28 07:15:33;;;;;;;12.98;5.38;;;;;;;11.22;99.23;98845.00;4999630;28;20029;-68
2022/09/28 07:18:02;;;;;;;10.02;4.82;;;;;;;11.21;99.88;98841.53;5009711;28;20455;-65
2022/09/28 07:20:28;;;;;;;14.60;5.93;;;;;;;11.29;99.00;98842.97;5017225;28;20083;-65
2022/09/28 07:22:55;;;;;;;11.40;4.70;;;;;;;11.35;98.73;98859.47;5026431;28;20045;-65
2022/09/28 07:25:22;;;;;;;10.30;4.82;;;;;;;11.45;98.96;98851.25;5013027;28;20030;-66
2022/09/28 07:28:08;;;;;;;14.05;5.90;;;;;;;11.31;97.64;98861.44;5005672;28;20123;-66
2022/09/28 07:30:51;;;;;;;10.32;4.10;;;;;;;11.45;98.18;98864.72;4998294;28;20037;-65
2022/09/28 07:33:37;;;;;;;9.93;4.53;;;;;;;11.52;97.99;98861.94;5007449;28;20674;-65
2022/09/28 07:36:33;;;;;;;9.40;4.78;;;;;;;11.59;98.34;98861.09;5003917;28;20061;-65
2022/09/28 07:39:00;;;;;;;15.82;5.72;;;;;;;11.62;98.27;98860.28;5030407;28;20030;-66
2022/09/28 07:41:33;;;;;;;13.07;5.78;;;;;;;11.72;97.24;98865.56;5021674;28;20038;-65
2022/09/28 07:44:05;;;;;;;13.85;6.43;;;;;;;11.68;97.43;98874.84;5003680;28;20037;-66
2022/09/28 07:46:33;;;;;;;12.38;5.93;;;;;;;11.69;97.22;98873.69;5006388;28;20029;-66
2022/09/28 07:49:06;;;;;;;11.02;5.00;;;;;;;11.36;96.39;98874.47;5001654;28;20049;-65
2022/09/28 07:51:38;;;;;;;11.40;5.75;;;;;;;11.13;97.41;98860.91;5010457;28;20045;-66
2022/09/28 07:54:38;;;;;;;10.88;4.90;;;;;;;11.23;96.57;98868.06;5023635;28;20148;-66
2022/09/28 07:57:46;;;;;;;13.95;5.82;;;;;;;10.93;98.30;98862.63;4989390;28;20097;-66
2022/09/28 08:00:33;;;;;;;16.67;6.63;;;;;;;10.83;99.08;98869.66;5009726;28;20064;-67
2022/09/28 08:02:59;;;;;;;13.18;5.40;;;;;;;10.76;100.00;98873.19;5033765;28;20045;-65
2022/09/28 08:05:30;;;;;;;17.27;6.63;;;;;;;10.82;99.95;98868.91;5002298;28;20041;-65
2022/09/28 08:07:57;;;;;;;14.88;6.13;;;;;;;10.80;100.00;98871.22;5006175;28;20113;-67
2022/09/28 08:10:25;;;;;;;17.58;6.63;;;;;;;11.04;100.00;98880.22;5008468;28;20033;-67
2022/09/28 08:13:15;;;;;;;14.50;6.13;;;;;;;11.21;99.63;98879.25;5004081;28;20395;-66
2022/09/28 08:16:00;;;;;;;13.50;5.38;;;;;;;11.37;99.71;98889.47;4990047;28;20084;-66
2022/09/28 08:18:39;;;;;;;15.57;6.40;;;;;;;11.33;98.59;98883.34;5015064;28;20037;-66
2022/09/28 08:24:14;;;;;;;14.05;5.05;;;;;;;11.43;97.98;98890.56;4947602;28;20034;-66
2022/09/28 08:26:41;;;;;;;18.25;6.90;;;;;;;11.58;97.75;98894.59;4954680;28;20092;-66
2022/09/28 08:29:07;;;;;;;17.08;5.95;;;;;;;11.64;97.26;98895.69;4968867;28;20077;-67
2022/09/28 08:31:58;;;;;;;17.60;6.82;;;;;;;11.34;97.72;98892.97;4975880;28;20034;-66
2022/09/28 08:34:40;;;;;;;13.82;5.80;;;;;;;11.51;98.15;98897.38;4973632;28;20125;-65
2022/09/28 08:37:24;;;;;;;11.57;5.75;;;;;;;11.54;98.15;98901.97;4957989;28;20073;-65
2022/09/28 08:40:18;;;;;;;12.40;5.85;;;;;;;11.72;98.48;98897.16;4969190;28;20046;-66
2022/09/28 08:43:09;;;;;;;20.63;6.90;;;;;;;11.88;97.55;98902.72;4968214;28;20217;-67
2022/09/28 08:45:55;;;;;;;;;;;;;;;11.88;97.72;98904.66;4956168;28;20073;-65
2022/09/28 08:49:09;;;;;;;16.10;6.22;;;;;;;11.94;95.50;98898.41;4939904;28;19917;-66
2022/09/28 08:51:55;;;;;;;17.60;6.35;;;;;;;11.69;96.76;98900.66;4974939;28;20034;-66
2022/09/28 08:54:47;;;;;;;14.57;5.45;;;;;;;11.59;96.46;98915.75;4973921;28;20470;-66
2022/09/28 08:57:26;;;;;;;16.48;5.88;;;;;;;11.57;97.35;98911.97;5030393;28;20034;-66
2022/09/28 08:59:54;;;;;;;8.02;4.80;;;;;;;11.50;97.17;98909.31;5012871;28;20034;-66
2022/09/28 09:02:38;;;;;;;16.65;6.70;;;;;;;11.27;98.63;98914.59;5006048;28;20405;-67
2022/09/28 09:05:18;;;;;;;13.18;5.78;;;;;;;11.58;97.01;98914.25;5008742;28;20034;-66
2022/09/28 09:08:14;;;;;;;12.77;5.75;;;;;;;11.50;97.54;98917.41;5022932;28;20532;-66
2022/09/28 09:10:49;;;;;;;17.25;7.30;;;;;;;11.64;98.11;98923.41;5007356;28;20038;-66
2022/09/28 09:13:44;;;;;;;14.15;6.78;;;;;;;11.83;97.38;98922.03;5023872;28;20504;-66
2022/09/28 09:16:23;;;;;;;18.55;6.00;;;;;;;11.65;96.33;98919.56;5000773;28;20033;-66
2022/09/28 09:19:34;;;;;;;14.73;6.38;;;;;;;11.69;96.46;98924.94;5002283;28;20702;-66
2022/09/28 09:22:26;;;;;;;19.73;6.82;;;;;;;11.73;96.14;98917.53;5005688;28;20038;-66
2022/09/28 09:25:17;;;;;;;17.27;6.43;;;;;;;11.97;97.19;98918.38;5015778;28;20350;-66
2022/09/28 09:28:25;;;;;;;13.77;6.25;;;;;;;12.11;96.64;98918.97;5005074;28;20041;-66
2022/09/28 09:30:55;;;;;;;15.25;5.32;;;;;;;12.26;95.70;98914.88;4991002;28;20048;-66
2022/09/28 09:33:44;;;;;;;11.02;4.97;;;;;;;12.37;95.80;98922.81;5011347;28;20037;-66
2022/09/28 09:36:58;;;;;;;16.25;6.10;;;;;;;12.55;95.47;98921.38;5004004;28;20092;-66
2022/09/28 09:40:13;;;;;;;16.48;6.68;;;;;;;12.66;94.58;98924.66;5008958;28;20054;-66
2022/09/28 09:43:17;;;;;;;12.63;5.25;;;;;;;12.66;92.56;98940.88;5013297;28;20044;-65
2022/09/28 09:46:30;;;;;;;12.93;6.10;;;;;;;12.47;92.51;98928.06;5009659;28;20037;-66
2022/09/28 09:49:37;;;;;;;18.08;6.40;;;;;;;12.38;92.36;98932.44;5006827;28;20033;-65
2022/09/28 09:52:26;;;;;;;11.02;5.25;;;;;;;12.52;92.71;98935.69;5017682;28;20406;-66
2022/09/28 09:55:01;;;;;;;23.48;6.95;;;;;;;12.72;92.38;98929.59;5020244;28;20060;-67
2022/09/28 09:58:08;;;;;;;12.00;5.57;;;;;;;12.78;91.95;98933.34;5010105;28;20490;-66
2022/09/28 10:00:44;;;;;;;12.70;5.85;;;;;;;12.87;92.17;98928.19;4997762;28;20042;-67
2022/09/28 10:03:28;;;;;;;13.05;5.88;;;;;;;12.88;91.94;98935.09;5013302;28;20038;-67
2022/09/28 10:06:07;;;;;;;12.13;5.28;;;;;;;12.92;91.87;98941.22;5025069;28;20030;-66
2022/09/28 10:08:39;;;;;;;14.63;6.25;;;;;;;12.94;91.79;98942.34;5007261;28;20030;-65
2022/09/28 10:11:07;;;;;;;13.98;4.78;;;;;;;13.00;91.49;98948.03;5021912;28;20679;-66
2022/09/28 10:13:36;;;;;;;13.55;5.88;;;;;;;13.03;91.66;98942.59;5006956;28;20040;-66
2022/09/28 10:16:09;;;;;;;14.18;5.60;;;;;;;13.09;91.53;98942.88;5009138;28;20033;-66
2022/09/28 10:18:43;;;;;;;13.27;6.03;;;;;;;13.07;90.37;98940.59;4993213;28;20038;-66
2022/09/28 10:21:28;;;;;;;12.10;4.95;;;;;;;13.16;90.01;98945.47;5000167;28;20052;-66
2022/09/28 10:24:01;;;;;;;;;;;;;;;13.18;89.62;98940.41;4995233;28;20109;-66
2022/09/28 10:26:42;;;;;;;13.48;5.43;;;;;;;13.08;88.38;98946.75;5019239;28;19964;-65
2022/09/28 10:29:16;;;;;;;9.95;4.93;;;;;;;13.07;88.71;98940.59;5013889;28;20044;-66
2022/09/28 10:31:46;;;;;;;12.43;5.32;;;;;;;13.12;89.40;98947.47;5015853;28;20480;-66
2022/09/28 10:34:27;;;;;;;12.70;6.03;;;;;;;13.21;89.44;98947.69;5023306;28;20450;-66
2022/09/28 10:36:57;;;;;;;12.70;6.13;;;;;;;13.18;89.30;98945.81;5022477;28;20095;-66
2022/09/28 10:39:28;;;;;;;12.63;5.20;;;;;;;13.23;88.62;98956.13;5008690;28;20391;-66
2022/09/28 10:41:57;;;;;;;11.30;5.68;;;;;;;13.32;88.50;98946.31;5014274;28;20061;-65
2022/09/28 10:44:27;;;;;;;13.07;5.28;;;;;;;13.44;88.54;98944.91;4994682;28;20469;-66
2022/09/28 10:47:16;;;;;;;10.68;5.53;;;;;;;13.49;88.08;98955.28;5018676;28;20042;-66
2022/09/28 10:49:47;;;;;;;11.15;5.35;;;;;;;13.53;88.29;98953.22;5013118;28;20087;-66
2022/09/28 10:52:41;;;;;;;12.75;5.60;;;;;;;13.56;87.79;98957.84;5021672;28;20705;-66
2022/09/28 10:55:30;;;;;;;10.80;5.10;;;;;;;13.66;87.83;98953.38;5009566;28;20069;-66
2022/09/28 10:57:57;;;;;;;13.15;5.63;;;;;;;13.90;87.29;98952.88;5017081;28;20045;-66
2022/09/28 11:00:32;;;;;;;14.15;4.82;;;;;;;14.00;86.66;98951.88;4998586;28;20502;-66
2022/09/28 11:03:24;;;;;;;12.85;4.45;;;;;;;14.04;86.65;98951.81;5003274;28;20038;-65
2022/09/28 11:06:07;;;;;;;;;;;;;;;14.05;85.07;98943.25;5025993;28;20631;-65
2022/09/28 11:08:42;;;;;;;13.60;4.53;;;;;;;14.22;83.78;98952.19;5009852;28;19952;-66
2022/09/28 11:11:14;;;;;;;11.25;4.25;;;;;;;14.35;83.25;98958.50;5013805;28;20091;-66
2022/09/28 11:13:51;;;;;;;10.98;4.28;;;;;;;14.21;81.56;98954.13;5018419;28;20129;-66
2022/09/28 11:16:30;;;;;;;11.43;4.97;;;;;;;14.24;82.01;98956.03;5000821;28;20547;-66
2022/09/28 11:19:18;;;;;;;9.43;3.95;;;;;;;14.45;81.51;98954.78;5008897;28;20048;-66
2022/09/28 11:21:45;;;;;;;9.20;4.50;;;;;;;14.55;81.00;98948.38;5009307;28;20045;-66
2022/09/28 11:24:14;;;;;;;11.70;4.38;;;;;;;14.64;81.56;98956.66;5004067;28;20038;-66
2022/09/28 11:26:58;;;;;;;10.73;4.20;;;;;;;14.77;82.11;98946.66;5000435;28;20042;-66
2022/09/28 11:29:40;;;;;;;9.70;4.07;;;;;;;14.91;82.03;98949.03;5004385;28;20462;-66
2022/09/28 11:32:29;;;;;;;10.60;4.22;;;;;;;15.01;80.02;98952.66;5011093;28;20428;-66
2022/09/28 11:35:41;;;;;;;8.27;4.00;;;;;;;15.30;79.23;98950.72;5011566;28;20049;-66
2022/09/28 11:38:35;;;;;;;13.02;4.85;;;;;;;15.58;78.63;98957.38;5010458;28;20048;-66
2022/09/28 11:41:34;;;;;;;8.13;4.03;;;;;;;15.87;77.78;98949.97;5006249;28;20060;-66
2022/09/28 11:44:45;;;;;;;12.07;4.60;;;;;;;15.90;75.92;98951.81;5003371;28;20030;-67
2022/09/28 11:47:28;;;;;;;7.95;3.90;;;;;;;15.95;74.75;98954.75;5006295;28;20042;-66
2022/09/28 11:50:05;;;;;;;6.53;3.35;;;;;;;15.86;74.32;98951.91;4995333;28;20033;-67
2022/09/28 11:52:41;;;;;;;5.38;3.17;;;;;;;16.08;74.13;98957.47;5023661;28;20040;-66
2022/09/28 11:55:35;;;;;;;5.68;3.15;;;;;;;15.92;72.42;98963.00;5021916;28;20049;-66
2022/09/28 11:58:32;;;;;;;6.30;2.50;;;;;;;16.15;74.48;98960.75;4982755;28;20070;-67
2022/09/28 12:01:25;;;;;;;6.10;2.90;;;;;;;16.20;72.70;98962.91;4989603;28;20112;-66
2022/09/28 12:04:27;;;;;;;7.05;3.13;;;;;;;16.31;71.81;98970.00;5001157;28;20522;-67
2022/09/28 12:07:11;;;;;;;5.72;2.47;;;;;;;16.42;71.02;98973.91;5003359;28;20041;-67
2022/09/28 12:09:49;;;;;;;4.65;2.42;;;;;;;16.09;69.92;98965.19;5013813;28;20048;-65
2022/09/28 12:12:24;;;;;;;5.28;3.05;;;;;;;15.86;71.33;98972.84;5026899;28;20041;-66
2022/09/28 12:14:58;;;;;;;5.15;2.72;;;;;;;15.76;72.06;98969.25;5004404;28;20494;-67
2022/09/28 12:17:37;;;;;;;9.25;3.05;;;;;;;15.76;74.12;98969.25;5010676;28;20034;-67